Flight Track Log - Related Links

Times and Time Zones

All times are in EDT time to prevent confusion due to time zone crossing. See the UPS1121 flight status page for this flight to view local times or setup timezone preferences in your user account.

Time Position Orientation Groundspeed Altitude Reporting Facility
EDT Latitude Longitude Course Direction KTS MPH feet Rate Location/Type
Wed 09:56:12 PM 41.9208 -72.7164 218° Southwest 158 182 1,900  Level Boston Center
Wed 09:56:55 PM 41.8914 -72.7469 218° Southwest 179 206 2,800 2,039 Climbing Boston Center
Wed 09:57:55 PM 41.8414 -72.8022 219° Southwest 214 246 5,400 3,000 Climbing Boston Center
Wed 09:58:55 PM 41.7767 -72.8242 194° South 271 312 8,800 2,300 Climbing Boston Center
Wed 09:59:55 PM 41.7289 -72.7406 127° Southeast 253 291 10,000 1,364 Climbing Boston Center
Wed 10:01:07 PM 41.7522 -72.5931 78° East 292 336 11,800 2,636 Climbing Boston Center
Wed 10:02:07 PM 41.8064 -72.5125 48° Northeast 318 366 15,800 3,000 Climbing Boston Center
Wed 10:03:07 PM 41.8961 -72.5433 346° North 264 304 17,800 1,747 Climbing Boston Center
Wed 10:09:06 PM 42.2800 -73.1670 346° North 411 473 28,000 1,526 Climbing FlightAware ADS-B
Wed 10:09:48 PM 42.2740 -73.2670 265° West 408 470 28,000  Level FlightAware ADS-B
Wed 10:10:24 PM 42.2690 -73.3450 265° West 408 470 28,000  Level FlightAware ADS-B
Wed 10:11:39 PM 42.2590 -73.5610 266° West 406 467 28,000  Level FlightAware ADS-B
Wed 10:12:24 PM 42.2530 -73.6720 266° West 408 470 28,000  Level FlightAware ADS-B
Wed 10:12:56 PM 42.2483 -73.7556 266° West 409 471 28,000  Level FlightAware ADS-B
Wed 10:13:34 PM 42.2427 -73.8525 266° West 410 472 28,000  Level FlightAware ADS-B
Wed 10:14:31 PM 42.2350 -73.9790 265° West 411 473 28,000 -500 Level FlightAware ADS-B
Wed 10:14:58 PM 42.2303 -74.0663 266° West 408 470 27,300 -723 Descending FlightAware ADS-B
Wed 10:16:59 PM 42.2130 -74.3550 265° West 26,000 -561 Descending FlightAware ADS-B
Wed 10:17:17 PM 42.2101 -74.4136 266° West 399 459 26,000  Level FlightAware ADS-B
Wed 10:18:25 PM 42.2000 -74.5830 265° West 401 461 26,000  Level FlightAware ADS-B
Wed 10:19:17 PM 42.1930 -74.7010 265° West 401 461 26,000  Level FlightAware ADS-B
Wed 10:19:32 PM 42.1830 -74.7450 253° West 408 470 26,000 -1,448 Level FlightAware ADS-B
Wed 10:20:15 PM 42.1380 -74.8410 238° Southwest 418 481 24,600 -1,929 Descending FlightAware ADS-B
Wed 10:20:28 PM 42.1240 -74.8650 232° Southwest 410 472 24,200 -2,250 Descending FlightAware ADS-B
Wed 10:21:27 PM 42.0500 -74.9880 231° Southwest 411 473 21,900 -2,351 Descending FlightAware ADS-B
Wed 10:22:05 PM 42.0050 -75.0630 231° Southwest 403 464 20,400 -2,250 Descending FlightAware ADS-B
Wed 10:22:39 PM 41.9620 -75.1270 228° Southwest 397 457 19,200 -1,105 Descending FlightAware ADS-B
Wed 10:23:21 PM 41.9000 -75.1840 214° Southwest 396 456 19,000 -878 Descending FlightAware ADS-B
Wed 10:24:01 PM 41.8370 -75.2350 211° Southwest 384 442 18,000 -1,571 Descending FlightAware ADS-B
Wed 10:24:45 PM 41.7710 -75.2890 211° Southwest 376 433 16,800 -1,059 Descending FlightAware ADS-B
Wed 10:25:26 PM 41.7160 -75.3320 210° Southwest 377 434 16,500 -234 Descending FlightAware ADS-B
Wed 10:26:02 PM 41.6710 -75.3690 212° Southwest 377 434 16,500  Level FlightAware ADS-B
Wed 10:26:50 PM 41.6100 -75.4180 211° Southwest 377 434 16,500  Level FlightAware ADS-B
Wed 10:27:26 PM 41.5640 -75.4550 211° Southwest 377 434 16,500  Level FlightAware ADS-B
Wed 10:28:14 PM 41.5030 -75.5040 211° Southwest 377 434 16,500  Level FlightAware ADS-B
Wed 10:28:50 PM 41.4570 -75.5410 211° Southwest 377 434 16,500 -2,901 Level FlightAware ADS-B
Wed 10:29:45 PM 41.3400 -75.6350 211° Southwest 350 403 12,100 -2,477 Descending FlightAware ADS-B
Wed 10:31:25 PM 41.1880 -75.6880 195° South 344 396 10,100 -845 Descending FlightAware ADS-B
Wed 10:32:07 PM 41.1220 -75.6870 179° South 348 400 10,100  Level FlightAware ADS-B
Wed 10:33:06 PM 41.0330 -75.6860 180° South 335 386 10,100  Level FlightAware ADS-B
Wed 10:33:51 PM 40.9570 -75.6860 180° South 338 389 10,100  Level FlightAware ADS-B
Wed 10:34:01 PM 40.9368 -75.6861 180° South 345 397 10,100  Level FlightAware ADS-B
Wed 10:34:33 PM 40.8864 -75.6857 180° South 343 395 10,100  Level FlightAware ADS-B
Wed 10:35:07 PM 40.8319 -75.6854 180° South 341 392 10,100  Level FlightAware ADS-B
Wed 10:35:41 PM 40.7794 -75.6848 180° South 343 395 10,100  Level FlightAware ADS-B
Wed 10:36:12 PM 40.7292 -75.6842 179° South 343 395 10,100  Level FlightAware ADS-B
Wed 10:36:43 PM 40.6803 -75.6836 179° South 338 389 10,100  Level FlightAware ADS-B
Wed 10:37:13 PM 40.6326 -75.6832 180° South 344 396 10,100  Level FlightAware ADS-B
Wed 10:37:23 PM 40.6173 -75.6828 179° South 343 395 10,100  Level FlightAware ADS-B
Wed 10:37:34 PM 40.5999 -75.6789 170° South 342 394 10,100  Level FlightAware ADS-B
Wed 10:37:44 PM 40.5852 -75.6710 158° South 343 395 10,100  Level FlightAware ADS-B
Wed 10:37:49 PM 40.5789 -75.6660 149° Southeast 345 397 10,100  Level FlightAware ADS-B
Wed 10:37:57 PM 40.5686 -75.6545 140° Southeast 350 403 10,100  Level FlightAware ADS-B
Wed 10:38:03 PM 40.5626 -75.6454 131° Southeast 353 406 10,100  Level FlightAware ADS-B
Wed 10:38:12 PM 40.5540 -75.6296 126° Southeast 355 409 10,100  Level FlightAware ADS-B
Wed 10:38:46 PM 40.5238 -75.5705 124° Southeast 327 376 10,100  Level FlightAware ADS-B
Wed 10:39:16 PM 40.4996 -75.5236 124° Southeast 303 349 10,100  Level FlightAware ADS-B
Wed 10:39:46 PM 40.4754 -75.4776 125° Southeast 303 349 10,100  Level FlightAware ADS-B
Wed 10:40:16 PM 40.4516 -75.4322 125° Southeast 303 349 10,100  Level FlightAware ADS-B
Wed 10:40:47 PM 40.4274 -75.3870 125° Southeast 299 344 10,100 -97 Level FlightAware ADS-B
Wed 10:41:18 PM 40.4018 -75.3422 127° Southeast 297 342 10,000 -383 Descending FlightAware ADS-B
Wed 10:41:34 PM 40.3885 -75.3185 126° Southeast 297 342 9,800 -1,000 Descending FlightAware ADS-B
Wed 10:41:42 PM 40.3815 -75.3066 128° Southeast 294 338 9,600 -1,500 Descending FlightAware ADS-B
Wed 10:41:46 PM 40.3777 -75.3015 134° Southeast 292 336 9,500 -1,500 Descending FlightAware ADS-B
Wed 10:41:50 PM 40.3737 -75.2974 142° Southeast 290 334 9,400 -1,500 Descending FlightAware ADS-B
Wed 10:41:54 PM 40.3695 -75.2937 146° Southeast 287 330 9,300 -2,250 Descending FlightAware ADS-B
Wed 10:41:58 PM 40.3653 -75.2909 153° Southeast 285 328 9,100 -1,714 Descending FlightAware ADS-B
Wed 10:42:01 PM 40.3607 -75.2885 158° South 283 326 9,100 -1,333 Level FlightAware ADS-B
Wed 10:42:16 PM 40.3430 -75.2813 163° South 281 323 8,700 -1,800 Descending FlightAware ADS-B
Wed 10:42:31 PM 40.3239 -75.2746 165° South 281 323 8,200 -1,680 Descending FlightAware ADS-B
Wed 10:42:41 PM 40.3108 -75.2701 165° South 281 323 8,000 -1,385 Descending FlightAware ADS-B
Wed 10:42:57 PM 40.2905 -75.2632 165° South 280 322 7,600 -1,548 Descending FlightAware ADS-B
Wed 10:43:12 PM 40.2717 -75.2569 166° South 276 318 7,200 -1,355 Descending FlightAware ADS-B
Wed 10:43:28 PM 40.2530 -75.2504 165° South 275 316 6,900 -1,548 Descending FlightAware ADS-B
Wed 10:43:43 PM 40.2341 -75.2441 166° South 274 315 6,400 -1,778 Descending FlightAware ADS-B
Wed 10:43:55 PM 40.2191 -75.2391 166° South 275 316 6,100 -1,500 Descending FlightAware ADS-B
Wed 10:44:11 PM 40.1993 -75.2328 166° South 275 316 5,700 -1,500 Descending FlightAware ADS-B
Wed 10:44:27 PM 40.1803 -75.2268 166° South 276 318 5,300 -1,714 Descending FlightAware ADS-B
Wed 10:44:39 PM 40.1644 -75.2218 166° South 275 316 4,900 -1,556 Descending FlightAware ADS-B
Wed 10:44:54 PM 40.1472 -75.2162 166° South 275 316 4,600 -1,200 Descending FlightAware ADS-B
Wed 10:44:59 PM 40.1402 -75.2134 163° South 275 316 4,500 -1,333 Descending FlightAware ADS-B
Wed 10:45:03 PM 40.1362 -75.2112 157° South 275 316 4,400 -1,714 Descending FlightAware ADS-B
Wed 10:45:06 PM 40.1321 -75.2083 152° Southeast 275 316 4,300 -1,500 Descending FlightAware ADS-B
Wed 10:45:11 PM 40.1277 -75.2043 145° Southeast 276 318 4,200 -1,286 Descending FlightAware ADS-B
Wed 10:45:20 PM 40.1187 -75.1941 139° Southeast 275 316 4,000 -1,500 Descending FlightAware ADS-B
Wed 10:45:35 PM 40.1046 -75.1767 137° Southeast 274 315 3,600 -1,600 Descending FlightAware ADS-B
Wed 10:45:50 PM 40.0904 -75.1593 137° Southeast 273 314 3,200 -1,000 Descending FlightAware ADS-B
Wed 10:46:05 PM 40.0766 -75.1422 137° Southeast 272 313 3,100 -194 Descending FlightAware ADS-B
Wed 10:46:21 PM 40.0622 -75.1241 136° Southeast 271 312 3,100  Level FlightAware ADS-B
Wed 10:46:37 PM 40.0481 -75.1063 136° Southeast 269 310 3,100  Level FlightAware ADS-B
Wed 10:46:52 PM 40.0341 -75.0889 136° Southeast 269 310 3,100  Level FlightAware ADS-B
Wed 10:47:08 PM 40.0199 -75.0712 136° Southeast 269 310 3,100  Level FlightAware ADS-B
Wed 10:47:25 PM 40.0048 -75.0522 136° Southeast 257 296 3,100  Level FlightAware ADS-B
Wed 10:47:48 PM 39.9857 -75.0287 137° Southeast 238 274 3,100  Level FlightAware ADS-B
Wed 10:47:55 PM 39.9788 -75.0218 143° Southeast 239 275 3,100  Level FlightAware ADS-B
Wed 10:48:11 PM 39.9637 -75.0112 152° Southeast 237 273 3,100  Level FlightAware ADS-B
Wed 10:48:17 PM 39.9577 -75.0085 161° South 231 266 3,100  Level FlightAware ADS-B
Wed 10:48:28 PM 39.9467 -75.0042 163° South 217 250 3,100  Level FlightAware ADS-B
Wed 10:48:33 PM 39.9417 -75.0026 166° South 210 242 3,100  Level FlightAware ADS-B
Wed 10:48:36 PM 39.9385 -75.0020 172° South 205 236 3,100  Level FlightAware ADS-B
Wed 10:48:47 PM 39.9288 -75.0039 189° South 186 214 3,100  Level FlightAware ADS-B
Wed 10:48:50 PM 39.9264 -75.0052 203° Southwest 183 211 3,100  Level FlightAware ADS-B
Wed 10:48:56 PM 39.9225 -75.0086 214° Southwest 179 206 3,100  Level FlightAware ADS-B
Wed 10:48:59 PM 39.9207 -75.0108 223° Southwest 177 204 3,100  Level FlightAware ADS-B
Wed 10:49:02 PM 39.9192 -75.0133 232° Southwest 175 201 3,100  Level FlightAware ADS-B
Wed 10:49:06 PM 39.9173 -75.0175 239° Southwest 173 199 3,100  Level FlightAware ADS-B
Wed 10:49:12 PM 39.9154 -75.0226 244° Southwest 173 199 3,100 -667 Level FlightAware ADS-B
Wed 10:49:33 PM 39.9109 -75.0428 254° West 169 194 2,800 -889 Descending FlightAware ADS-B
Wed 10:49:39 PM 39.9098 -75.0490 257° West 158 182 2,700 -667 Descending FlightAware ADS-B
Wed 10:49:42 PM 39.9092 -75.0518 254° West 157 181 2,700 -667 Level FlightAware ADS-B
Wed 10:49:57 PM 39.9064 -75.0656 255° West 155 178 2,500 -774 Descending FlightAware ADS-B
Wed 10:50:13 PM 39.9036 -75.0798 256° West 154 177 2,300 -800 Descending FlightAware ADS-B
Wed 10:50:27 PM 39.9011 -75.0923 255° West 155 178 2,100 -828 Descending FlightAware ADS-B
Wed 10:50:42 PM 39.8984 -75.1060 256° West 155 178 1,900 -889 Descending FlightAware ADS-B
Wed 10:50:54 PM 39.8964 -75.1162 256° West 155 178 1,700 -889 Descending FlightAware ADS-B
Wed 10:51:09 PM 39.8936 -75.1301 255° West 151 174 1,500 -750 Descending FlightAware ADS-B
Wed 10:51:26 PM 39.8910 -75.1437 256° West 134 154 1,300 -667 Descending FlightAware ADS-B
Wed 10:51:36 PM 39.8895 -75.1512 255° West 127 146 1,200 -480 Descending FlightAware ADS-B
Wed 10:51:51 PM 39.8873 -75.1621 255° West 123 142 1,100 -571 Descending FlightAware ADS-B
Wed 10:51:57 PM 39.8864 -75.1665 255° West 123 142 1,000 -818 Descending FlightAware ADS-B
Wed 10:52:13 PM 39.8842 -75.1776 256° West 122 140 800 -581 Descending FlightAware ADS-B
Wed 10:52:28 PM 39.8821 -75.1885 256° West 122 140 700 -581 Descending FlightAware ADS-B
Wed 10:52:44 PM 39.8799 -75.1994 255° West 121 139 500 -750 Descending FlightAware ADS-B
Wed 11:01:00 PM 39.8667 -75.2333 254° West  Level FlightAware Approximate

Login

Don't have an account? Register now (free) for customized features, flight alerts, and more!